createdAt,value
2018-07-12T00:02:46.565Z,22.04
2018-07-12T00:07:50.134Z,21.88
2018-07-12T00:12:53.619Z,21.85
2018-07-12T00:17:56.292Z,21.71
2018-07-12T00:22:59.195Z,21.34
2018-07-12T00:28:01.810Z,21.11
2018-07-12T00:33:04.390Z,21.08
2018-07-12T00:38:07.016Z,20.95
2018-07-12T00:43:10.022Z,21.00
2018-07-12T00:48:12.680Z,20.96
2018-07-12T00:53:15.279Z,20.89
2018-07-12T00:58:17.967Z,20.76
2018-07-12T01:03:20.560Z,20.65
2018-07-12T01:08:23.146Z,20.27
2018-07-12T01:13:25.815Z,20.54
2018-07-12T01:18:28.773Z,20.98
2018-07-12T01:23:32.348Z,20.93
2018-07-12T01:28:35.026Z,20.85
2018-07-12T01:33:37.706Z,20.73
2018-07-12T01:38:40.301Z,20.57
2018-07-12T01:43:42.926Z,20.50
2018-07-12T01:48:46.237Z,20.83
2018-07-12T01:53:48.814Z,21.04
2018-07-12T01:58:51.463Z,20.94
2018-07-12T02:03:54.014Z,20.68
2018-07-12T02:08:56.547Z,20.45
2018-07-12T02:13:59.220Z,20.64
2018-07-12T02:19:01.825Z,20.82
2018-07-12T02:24:05.089Z,20.91
2018-07-12T02:29:07.575Z,21.02
2018-07-12T02:34:10.503Z,21.05
2018-07-12T02:39:13.042Z,21.00
2018-07-12T02:44:15.688Z,21.14
2018-07-12T02:49:18.962Z,21.01
2018-07-12T02:54:21.496Z,20.86
2018-07-12T02:59:24.097Z,20.76
2018-07-12T03:04:26.692Z,20.86
2018-07-12T03:09:29.956Z,20.75
2018-07-12T03:14:32.517Z,20.83
2018-07-12T03:19:35.121Z,20.75
2018-07-12T03:24:38.245Z,20.53
2018-07-12T03:29:41.691Z,20.49
2018-07-12T03:34:44.217Z,20.44
2018-07-12T03:39:46.714Z,20.50
2018-07-12T03:44:49.260Z,20.76
2018-07-12T03:49:51.923Z,20.89
2018-07-12T03:54:54.563Z,20.87
2018-07-12T03:59:57.079Z,20.50
2018-07-12T04:04:59.672Z,20.48
2018-07-12T04:10:05.800Z,20.60
2018-07-12T04:15:08.272Z,20.46
2018-07-12T04:20:10.756Z,20.53
2018-07-12T04:25:13.282Z,20.42
2018-07-12T04:30:15.768Z,20.15
2018-07-12T04:35:18.271Z,19.73
2018-07-12T04:40:20.970Z,19.71
2018-07-12T04:45:23.726Z,19.35
2018-07-12T04:50:26.228Z,19.17
2018-07-12T04:55:29.052Z,18.80
2018-07-12T05:00:31.690Z,18.36
2018-07-12T05:05:34.204Z,18.43
2018-07-12T05:10:36.763Z,18.53
2018-07-12T05:15:39.320Z,18.72
2018-07-12T05:20:41.905Z,18.85
2018-07-12T05:25:44.442Z,18.41
2018-07-12T05:30:47.235Z,18.24
2018-07-12T05:35:50.901Z,18.35
2018-07-12T05:40:54.664Z,18.09
2018-07-12T05:45:58.397Z,18.00
2018-07-12T05:51:02.063Z,18.07
2018-07-12T05:56:05.813Z,17.95
2018-07-12T06:01:20.580Z,18.02
2018-07-12T06:06:24.291Z,18.11
2018-07-12T06:11:28.832Z,17.78
2018-07-12T06:16:32.611Z,17.43
2018-07-12T06:21:36.370Z,17.71
2018-07-12T06:26:40.108Z,17.29
2018-07-12T06:31:43.774Z,16.94
2018-07-12T06:36:47.731Z,17.02
2018-07-12T06:41:51.788Z,16.80
2018-07-12T06:46:55.498Z,16.83
2018-07-12T06:51:59.159Z,16.69
2018-07-12T06:57:02.882Z,16.58
2018-07-12T07:02:11.151Z,16.59
2018-07-12T07:07:15.079Z,16.45
2018-07-12T07:12:18.849Z,18.10
2018-07-12T07:17:23.142Z,19.06
2018-07-12T07:22:27.267Z,19.39
2018-07-12T07:27:31.106Z,19.68
2018-07-12T07:32:34.866Z,19.91
2018-07-12T07:37:39.324Z,20.07
2018-07-12T07:42:43.784Z,20.19
2018-07-12T07:47:48.035Z,20.23
2018-07-12T07:52:51.777Z,20.33
2018-07-12T07:57:56.757Z,20.47
2018-07-12T08:03:00.449Z,20.49
2018-07-12T08:08:04.213Z,20.55
2018-07-12T08:13:07.990Z,20.56
2018-07-12T08:18:12.679Z,20.59
2018-07-12T08:23:17.891Z,20.67
2018-07-12T08:28:24.339Z,20.73
2018-07-12T08:33:28.355Z,20.76
2018-07-12T08:38:33.902Z,20.79
2018-07-12T08:43:38.308Z,20.86
2018-07-12T08:48:43.890Z,20.95
2018-07-12T08:53:47.519Z,20.98
2018-07-12T08:58:51.212Z,21.02
2018-07-12T09:03:54.898Z,21.06
2018-07-12T09:08:59.774Z,21.09
2018-07-12T09:14:03.614Z,20.20
2018-07-12T09:19:07.358Z,18.84
2018-07-12T09:24:11.010Z,19.77
2018-07-12T09:29:14.734Z,20.45
2018-07-12T09:34:18.463Z,20.71
2018-07-12T09:39:22.178Z,20.82
2018-07-12T09:44:25.914Z,20.92
2018-07-12T09:49:29.997Z,20.95
2018-07-12T09:54:33.669Z,21.00
2018-07-12T09:59:37.371Z,21.07
2018-07-12T10:04:41.100Z,21.10
2018-07-12T10:09:50.074Z,21.16
2018-07-12T10:14:57.772Z,21.24
2018-07-12T10:20:02.726Z,21.29
2018-07-12T10:29:30.854Z,21.35
2018-07-12T10:34:34.558Z,21.44
2018-07-12T10:39:38.255Z,21.45
2018-07-12T10:44:42.148Z,21.48
2018-07-12T10:49:45.800Z,21.52
2018-07-12T10:54:49.446Z,21.55
2018-07-12T10:59:53.117Z,21.61
2018-07-12T11:04:56.805Z,21.64
2018-07-12T11:10:02.918Z,21.68
2018-07-12T11:15:07.164Z,21.69
2018-07-12T11:20:11.426Z,21.70
2018-07-12T11:25:15.134Z,21.74
2018-07-12T11:30:18.874Z,21.74
2018-07-12T11:35:22.538Z,21.75
2018-07-12T11:40:26.154Z,21.75
2018-07-12T11:45:29.814Z,21.80
2018-07-12T11:50:33.442Z,21.83
2018-07-12T11:55:37.244Z,21.89
2018-07-12T12:00:43.304Z,21.98
2018-07-12T12:05:49.240Z,22.04
2018-07-12T12:10:53.766Z,22.04
2018-07-12T12:15:57.541Z,22.02
2018-07-12T12:21:01.354Z,22.03
2018-07-12T12:26:05.117Z,22.04
2018-07-12T12:31:08.854Z,22.03
2018-07-12T12:36:14.008Z,22.01
2018-07-12T12:41:17.972Z,21.64
2018-07-12T12:46:21.750Z,21.79
2018-07-12T12:51:25.653Z,21.97
2018-07-12T12:56:29.417Z,22.03
2018-07-12T13:01:33.059Z,22.04
2018-07-12T13:06:36.881Z,22.06
2018-07-12T13:11:40.596Z,22.08
2018-07-12T13:16:44.507Z,22.18
2018-07-12T13:21:48.266Z,22.23
2018-07-12T13:26:52.075Z,22.23
2018-07-12T13:31:55.837Z,22.34
2018-07-12T13:36:59.642Z,22.42
2018-07-12T13:42:03.597Z,22.46
2018-07-12T13:47:07.487Z,22.49
2018-07-12T13:52:12.153Z,22.52
2018-07-12T13:57:17.601Z,22.50
2018-07-12T14:02:21.620Z,22.52
2018-07-12T14:07:26.366Z,22.55
2018-07-12T14:12:30.408Z,22.54
2018-07-12T14:17:41.399Z,22.57
2018-07-12T14:22:45.267Z,22.57
2018-07-12T14:27:49.140Z,22.64
2018-07-12T14:32:52.875Z,22.68
2018-07-12T14:37:56.546Z,22.74
2018-07-12T14:43:00.283Z,22.79
2018-07-12T14:48:03.982Z,22.79
2018-07-12T14:53:07.765Z,22.85
2018-07-12T14:58:11.509Z,22.98
2018-07-12T15:03:15.282Z,23.07
2018-07-12T15:08:25.328Z,23.12
2018-07-12T15:13:30.368Z,23.24
2018-07-12T15:18:34.943Z,23.31
2018-07-12T15:23:41.615Z,23.39
2018-07-12T15:28:45.767Z,23.51
2018-07-12T15:33:49.706Z,23.60
2018-07-12T15:38:53.984Z,23.63
2018-07-12T15:43:59.503Z,23.68
2018-07-12T15:49:04.043Z,23.68
2018-07-12T15:54:07.779Z,23.65
2018-07-12T15:59:11.445Z,23.61
2018-07-12T16:04:15.151Z,23.54
2018-07-12T16:09:18.757Z,23.49
2018-07-12T16:14:22.512Z,23.46
2018-07-12T16:19:27.269Z,23.45
2018-07-12T16:24:31.160Z,23.39
2018-07-12T16:29:36.267Z,23.49
2018-07-12T16:34:40.753Z,23.53
2018-07-12T16:39:46.213Z,23.51
2018-07-12T16:44:50.295Z,23.48
2018-07-12T16:49:55.980Z,23.12
2018-07-12T16:55:03.613Z,23.13
2018-07-12T17:00:08.283Z,23.21
2018-07-12T17:05:12.067Z,23.00
2018-07-12T17:10:16.097Z,22.90
2018-07-12T17:15:20.428Z,22.87
2018-07-12T17:20:25.916Z,22.85
2018-07-12T17:25:29.618Z,22.95
2018-07-12T17:30:33.941Z,22.97
2018-07-12T17:35:38.054Z,23.23
2018-07-12T17:40:41.979Z,23.42
2018-07-12T17:45:45.771Z,23.48
2018-07-12T17:50:56.587Z,23.52
2018-07-12T17:56:01.100Z,23.56
2018-07-12T18:01:09.281Z,23.60
2018-07-12T18:06:13.019Z,23.61
2018-07-12T18:11:17.815Z,23.62
2018-07-12T18:16:21.578Z,23.65
2018-07-12T18:21:25.476Z,23.70
2018-07-12T18:26:29.348Z,23.72
2018-07-12T18:31:33.207Z,23.77
2018-07-12T18:36:36.970Z,23.78
2018-07-12T18:41:55.508Z,23.73
2018-07-12T18:52:24.067Z,23.83
2018-07-12T18:57:27.835Z,23.83
2018-07-12T19:02:32.242Z,23.84
2018-07-12T19:07:37.615Z,23.82
2018-07-12T19:12:42.901Z,23.84
2018-07-12T19:17:47.542Z,23.87
2018-07-12T19:22:51.755Z,23.89
2018-07-12T19:27:57.588Z,23.90
2018-07-12T19:33:02.657Z,23.86
2018-07-12T19:38:07.956Z,23.88
2018-07-12T19:43:12.136Z,23.91
2018-07-12T19:48:16.310Z,23.89
2018-07-12T19:53:21.523Z,23.89
2018-07-12T19:58:28.118Z,23.93
2018-07-12T20:03:32.580Z,23.94
2018-07-12T20:08:36.611Z,23.99
2018-07-12T20:13:42.198Z,23.97
2018-07-12T20:18:46.377Z,24.01
2018-07-12T20:23:51.267Z,24.06
2018-07-12T20:28:55.228Z,23.98
2018-07-12T20:34:01.050Z,24.04
2018-07-12T20:39:06.565Z,24.05
2018-07-12T20:44:12.894Z,24.03
2018-07-12T20:49:27.173Z,24.04
2018-07-12T20:54:38.748Z,24.06
2018-07-12T20:59:53.517Z,24.03
2018-07-12T21:04:57.320Z,24.00
2018-07-12T21:10:03.310Z,24.04
2018-07-12T21:15:07.646Z,24.03
2018-07-12T21:20:11.355Z,24.05
2018-07-12T21:25:15.122Z,24.06
2018-07-12T21:30:18.806Z,24.09
2018-07-12T21:35:22.424Z,24.12
2018-07-12T21:40:26.169Z,24.12
2018-07-12T21:45:29.921Z,24.08
2018-07-12T21:50:33.747Z,24.11
2018-07-12T21:55:37.469Z,24.13
2018-07-12T22:00:41.175Z,24.15
2018-07-12T22:05:44.915Z,24.14
2018-07-12T22:10:49.752Z,24.13
2018-07-12T22:15:53.425Z,24.14
2018-07-12T22:20:57.042Z,24.14
2018-07-12T22:26:00.820Z,24.20
2018-07-12T22:31:04.704Z,24.17
2018-07-12T22:36:08.785Z,24.16
2018-07-12T22:41:12.658Z,24.19
2018-07-12T22:46:16.667Z,24.18
2018-07-12T22:51:20.774Z,24.21
2018-07-12T22:56:24.478Z,24.22
2018-07-12T23:01:28.154Z,24.22
2018-07-12T23:06:31.977Z,24.23
2018-07-12T23:11:35.659Z,24.21
2018-07-12T23:16:39.286Z,24.21
2018-07-12T23:21:44.032Z,24.18
2018-07-12T23:26:47.794Z,24.18
2018-07-12T23:31:51.510Z,24.16
2018-07-12T23:36:55.211Z,24.14
2018-07-12T23:41:58.954Z,24.23
2018-07-12T23:47:02.698Z,24.25
2018-07-12T23:52:06.450Z,24.25
2018-07-12T23:57:10.109Z,24.21
